Terminal Aerodrome Forecast
Issued by NWS Denver/Boulder, CO

Home | Current Version | Previous Version | Text Only | Print | Product List | Glossary On
Versions: 1 2 3 4 5 6 7 8 9 10 11 12 13 14 15 16 17 18 19 20 21 22 23 24 25 26 27 28 29 30 31 32 33 34 35 36 37 38 39 40 41 42 43 44 45 46 47 48 49 50
000
FTUS45 KBOU 270540
TAFDEN
TAF
KDEN 270540Z 2706/2812 VRB05KT P6SM SCT045 BKN220
     FM270700 19007KT P6SM FEW050 BKN220
     FM270900 21006KT P6SM SCT220
     FM271400 VRB06KT P6SM FEW100 SCT220
     FM271900 14008KT P6SM FEW080 SCT120
     FM272200 15012KT P6SM SCT060 BKN100 BKN220
     FM280300 14010KT P6SM VCSH SCT030 BKN070 OVC100=

USA.gov is the U.S. government's official web portal to all federal, state and local government web resources and services.